Time;durP1;ratioP1;P1;durP2;ratioP2;P2;SDS_P1;SDS_P2;PMS_P1;PMS_P2;Temp;Humidity;BMP_temperature;BMP_pressure;BME280_temperature;BME280_humidity;BME280_pressure;Samples;Min_cycle;Max_cycle;Signal;HPM_P1;HPM_P2
2022/07/24 00:01:40;;;;;;;17.20;13.60;;;20.70;37.40;;;;;;5066813;28;20461;-62
2022/07/24 00:04:07;;;;;;;16.17;12.33;;;20.60;37.00;;;;;;5064844;28;20476;-64
2022/07/24 00:09:08;;;;;;;17.13;14.17;;;20.60;37.40;;;;;;5082581;22;20500;-67
2022/07/24 00:11:35;;;;;;;13.93;12.20;;;20.60;37.10;;;;;;5055280;28;20462;-67
2022/07/24 00:14:01;;;;;;;14.93;13.20;;;20.60;37.00;;;;;;5067736;28;20465;-67
2022/07/24 00:16:30;;;;;;;15.90;12.67;;;20.60;37.20;;;;;;5062646;28;20457;-69
2022/07/24 00:18:57;;;;;;;15.10;13.50;;;20.50;37.50;;;;;;5062432;28;21000;-67
2022/07/24 00:21:23;;;;;;;15.40;13.60;;;20.50;37.60;;;;;;5060346;28;20996;-64
2022/07/24 00:23:50;;;;;;;14.83;13.33;;;20.50;37.50;;;;;;5070398;28;20459;-65
2022/07/24 00:26:17;;;;;;;15.87;13.80;;;20.50;37.80;;;;;;5066246;28;20460;-67
2022/07/24 00:28:44;;;;;;;14.97;13.47;;;20.50;37.80;;;;;;5058209;28;20480;-67
2022/07/24 00:31:11;;;;;;;15.87;12.90;;;20.50;37.60;;;;;;5066686;28;20572;-65
2022/07/24 00:33:39;;;;;;;14.73;13.13;;;20.50;37.80;;;;;;5066747;28;20472;-65
2022/07/24 00:36:06;;;;;;;16.40;14.00;;;20.50;37.80;;;;;;5067493;28;20969;-66
2022/07/24 00:38:33;;;;;;;16.67;13.67;;;20.50;38.20;;;;;;5059041;28;20489;-67
2022/07/24 00:41:00;;;;;;;16.13;14.00;;;20.50;38.10;;;;;;5060570;28;20479;-67
2022/07/24 00:43:26;;;;;;;15.03;12.80;;;20.50;38.30;;;;;;5066733;28;20472;-66
2022/07/24 00:45:53;;;;;;;19.83;14.70;;;20.60;38.30;;;;;;5060483;28;20831;-66
2022/07/24 00:48:20;;;;;;;17.87;14.50;;;20.50;38.00;;;;;;5066136;28;20481;-66
2022/07/24 00:50:48;;;;;;;20.03;15.90;;;20.50;38.20;;;;;;5064909;28;20461;-65
2022/07/24 00:53:16;;;;;;;17.27;14.90;;;20.50;38.40;;;;;;5063896;28;20825;-66
2022/07/24 00:55:43;;;;;;;16.43;14.07;;;20.50;38.40;;;;;;5066219;28;20479;-65
2022/07/24 00:58:09;;;;;;;16.70;12.73;;;20.40;38.40;;;;;;5061337;28;20485;-64
2022/07/24 01:00:36;;;;;;;16.53;14.27;;;20.40;38.30;;;;;;5061151;28;20457;-64
2022/07/24 01:03:03;;;;;;;17.03;15.23;;;20.40;38.30;;;;;;5060550;28;20469;-67
2022/07/24 01:05:30;;;;;;;20.60;14.87;;;20.40;38.40;;;;;;5065233;28;20463;-64
2022/07/24 01:07:58;;;;;;;19.70;15.07;;;20.40;38.70;;;;;;5064329;28;20492;-68
2022/07/24 01:10:25;;;;;;;16.97;14.33;;;20.40;38.80;;;;;;5059977;28;20465;-67
2022/07/24 01:12:52;;;;;;;18.70;14.70;;;20.40;38.90;;;;;;5057585;28;20458;-67
2022/07/24 01:15:19;;;;;;;17.40;15.53;;;20.40;38.90;;;;;;5058163;28;20492;-64
2022/07/24 01:17:45;;;;;;;15.70;13.83;;;20.40;38.70;;;;;;5060579;28;20508;-64
2022/07/24 01:20:13;;;;;;;16.27;14.30;;;20.40;38.50;;;;;;5063748;28;20460;-67
2022/07/24 01:22:41;;;;;;;17.33;15.40;;;20.40;39.00;;;;;;5060831;28;20504;-64
2022/07/24 01:25:10;;;;;;;21.17;15.30;;;20.40;38.70;;;;;;5066370;28;20476;-66
2022/07/24 01:27:37;;;;;;;17.20;14.50;;;20.40;38.40;;;;;;5064582;28;20531;-65
2022/07/24 01:30:05;;;;;;;17.13;15.30;;;20.30;38.40;;;;;;5063917;28;20726;-67
2022/07/24 01:32:32;;;;;;;16.97;14.83;;;20.30;38.80;;;;;;5065510;28;20995;-64
2022/07/24 01:34:59;;;;;;;18.00;14.53;;;20.30;38.50;;;;;;5063619;28;20976;-64
2022/07/24 01:37:25;;;;;;;17.47;15.23;;;20.40;38.70;;;;;;5064079;28;20516;-64
2022/07/24 01:39:54;;;;;;;16.43;14.63;;;20.40;38.60;;;;;;5062818;28;20572;-64
2022/07/24 01:42:20;;;;;;;18.50;16.20;;;20.40;38.50;;;;;;5063698;28;20461;-66
2022/07/24 01:44:47;;;;;;;20.00;14.13;;;20.40;38.40;;;;;;5062287;28;20461;-67
2022/07/24 01:47:14;;;;;;;18.37;14.80;;;20.30;38.40;;;;;;5063072;28;20496;-64
2022/07/24 01:49:41;;;;;;;18.53;14.07;;;20.30;38.40;;;;;;5064259;28;20472;-65
2022/07/24 01:52:08;;;;;;;19.27;13.93;;;20.20;38.30;;;;;;5066120;28;20470;-65
2022/07/24 01:54:35;;;;;;;18.60;14.50;;;20.20;38.40;;;;;;5060190;28;20478;-65
2022/07/24 01:57:03;;;;;;;21.23;15.50;;;20.10;38.40;;;;;;5064543;28;20460;-65
2022/07/24 01:59:30;;;;;;;17.43;14.97;;;20.10;38.50;;;;;;5062023;28;20483;-65
2022/07/24 02:01:57;;;;;;;19.13;15.83;;;20.10;38.30;;;;;;5059464;28;20476;-66
2022/07/24 02:04:23;;;;;;;18.60;14.60;;;20.10;38.20;;;;;;5060690;28;20466;-65
2022/07/24 02:06:50;;;;;;;20.50;15.60;;;20.00;38.30;;;;;;5061272;28;20469;-65
2022/07/24 02:09:17;;;;;;;17.63;15.70;;;20.00;38.20;;;;;;5064878;28;20618;-66
2022/07/24 02:11:44;;;;;;;18.00;14.03;;;19.90;38.30;;;;;;5059988;28;20474;-66
2022/07/24 02:14:12;;;;;;;19.50;13.90;;;19.80;38.30;;;;;;5061021;28;20469;-65
2022/07/24 02:16:39;;;;;;;23.33;16.17;;;19.80;38.30;;;;;;5063126;28;20468;-64
2022/07/24 02:19:05;;;;;;;17.27;14.83;;;19.80;38.00;;;;;;5065702;28;20872;-64
2022/07/24 02:21:32;;;;;;;25.03;15.57;;;19.80;38.20;;;;;;5060650;28;20457;-65
2022/07/24 02:23:59;;;;;;;20.17;15.00;;;19.80;38.20;;;;;;5061222;28;20563;-65
2022/07/24 02:26:26;;;;;;;18.60;14.63;;;19.80;38.20;;;;;;5061969;28;20468;-64
2022/07/24 02:28:52;;;;;;;21.73;16.33;;;19.70;38.40;;;;;;5064624;28;20528;-65
2022/07/24 02:31:20;;;;;;;21.17;16.03;;;19.70;38.40;;;;;;5064198;28;20469;-65
2022/07/24 02:33:47;;;;;;;20.47;14.93;;;19.70;38.40;;;;;;5062273;28;20457;-66
2022/07/24 02:36:14;;;;;;;20.30;15.50;;;19.70;38.30;;;;;;5066194;28;20453;-65
2022/07/24 02:38:41;;;;;;;20.60;16.33;;;19.60;38.60;;;;;;5063988;28;20490;-64
2022/07/24 02:41:08;;;;;;;20.03;15.23;;;19.60;38.70;;;;;;5061768;28;20468;-65
2022/07/24 02:43:35;;;;;;;24.43;14.43;;;19.50;39.00;;;;;;5069025;28;20964;-65
2022/07/24 02:46:02;;;;;;;27.23;15.17;;;19.50;39.10;;;;;;5065040;28;20472;-64
2022/07/24 02:48:30;;;;;;;22.80;14.47;;;19.50;38.80;;;;;;5064738;28;20826;-64
2022/07/24 02:50:57;;;;;;;22.63;15.80;;;19.40;39.00;;;;;;5059405;28;20462;-65
2022/07/24 02:53:23;;;;;;;25.43;14.60;;;19.40;38.80;;;;;;5068200;28;20461;-65
2022/07/24 02:55:50;;;;;;;20.13;14.93;;;19.40;38.80;;;;;;5062779;28;20463;-65
2022/07/24 02:58:17;;;;;;;18.97;14.93;;;19.40;38.80;;;;;;5063341;28;20488;-65
2022/07/24 03:00:44;;;;;;;22.13;15.73;;;19.40;38.80;;;;;;5060918;28;20485;-64
2022/07/24 03:03:11;;;;;;;21.67;16.30;;;19.40;39.20;;;;;;5067514;28;20462;-66
2022/07/24 03:05:39;;;;;;;21.37;16.17;;;19.40;39.10;;;;;;5068304;28;20465;-66
2022/07/24 03:08:06;;;;;;;24.63;16.57;;;19.40;39.40;;;;;;5059377;28;20492;-65
2022/07/24 03:10:33;;;;;;;19.27;16.83;;;19.40;39.40;;;;;;5069153;28;20480;-66
2022/07/24 03:13:00;;;;;;;19.10;16.03;;;19.30;39.40;;;;;;5069076;28;20836;-65
2022/07/24 03:15:26;;;;;;;18.80;15.33;;;19.40;39.50;;;;;;5065705;28;20461;-64
2022/07/24 03:17:55;;;;;;;19.60;15.80;;;19.40;39.90;;;;;;5065229;28;20496;-64
2022/07/24 03:20:23;;;;;;;20.37;15.40;;;19.40;39.90;;;;;;5064913;28;20516;-64
2022/07/24 03:22:52;;;;;;;18.93;15.50;;;19.50;39.80;;;;;;5068103;28;20635;-65
2022/07/24 03:25:19;;;;;;;26.20;14.77;;;19.60;39.10;;;;;;5065537;28;20488;-65
2022/07/24 03:27:47;;;;;;;28.17;15.70;;;19.50;38.90;;;;;;5068172;28;20477;-65
2022/07/24 03:30:15;;;;;;;23.03;16.17;;;19.40;39.10;;;;;;5066386;28;20540;-63
2022/07/24 03:32:41;;;;;;;23.77;16.67;;;19.30;39.60;;;;;;5063350;28;21061;-65
2022/07/24 03:35:09;;;;;;;21.00;15.20;;;19.30;39.00;;;;;;5070129;28;20475;-65
2022/07/24 03:37:36;;;;;;;22.03;15.23;;;19.30;38.90;;;;;;5065286;28;20492;-65
2022/07/24 03:40:06;;;;;;;19.40;15.40;;;19.30;39.00;;;;;;5062721;28;20484;-66
2022/07/24 03:42:33;;;;;;;20.43;15.00;;;19.20;39.10;;;;;;5067455;28;20959;-66
2022/07/24 03:44:59;;;;;;;18.83;14.70;;;19.20;38.90;;;;;;5064861;28;20462;-66
2022/07/24 03:47:26;;;;;;;21.10;15.37;;;19.20;39.00;;;;;;5065671;28;20481;-64
2022/07/24 03:49:53;;;;;;;19.80;15.80;;;19.20;39.40;;;;;;5064940;28;20469;-65
2022/07/24 03:52:20;;;;;;;19.60;16.10;;;19.20;39.20;;;;;;5066227;28;20453;-65
2022/07/24 03:54:46;;;;;;;22.33;15.40;;;19.20;39.20;;;;;;5067303;28;20469;-65
2022/07/24 03:57:14;;;;;;;16.97;14.20;;;19.20;39.20;;;;;;5063983;28;20489;-64
2022/07/24 03:59:41;;;;;;;25.90;15.70;;;19.20;39.10;;;;;;5063334;28;20647;-65
2022/07/24 04:02:08;;;;;;;24.83;15.33;;;19.20;39.10;;;;;;5055800;28;20879;-64
2022/07/24 04:04:35;;;;;;;21.83;14.20;;;19.20;39.00;;;;;;5064453;28;21115;-65
2022/07/24 04:07:01;;;;;;;18.97;14.60;;;19.20;38.90;;;;;;5064586;28;20461;-64
2022/07/24 04:09:28;;;;;;;16.10;13.20;;;19.20;38.90;;;;;;5066603;28;20468;-64
2022/07/24 04:11:55;;;;;;;20.70;15.77;;;19.20;38.90;;;;;;5064121;28;20457;-66
2022/07/24 04:14:23;;;;;;;19.50;15.77;;;19.30;39.00;;;;;;5063450;28;20468;-65
2022/07/24 04:16:50;;;;;;;20.33;15.10;;;19.30;39.30;;;;;;5066126;28;20852;-64
2022/07/24 04:19:17;;;;;;;18.17;14.03;;;19.30;39.60;;;;;;5065429;28;20481;-66
2022/07/24 04:21:44;;;;;;;19.43;14.90;;;19.40;39.50;;;;;;5065375;28;20480;-65
2022/07/24 04:24:11;;;;;;;20.23;14.03;;;19.40;39.60;;;;;;5067425;28;20461;-65
2022/07/24 04:26:37;;;;;;;18.13;15.30;;;19.40;39.60;;;;;;5062636;28;20473;-65
2022/07/24 04:29:04;;;;;;;16.13;14.40;;;19.40;39.40;;;;;;5069518;28;21221;-66
2022/07/24 04:31:32;;;;;;;18.60;14.53;;;19.50;39.50;;;;;;5064935;28;20489;-65
2022/07/24 04:33:59;;;;;;;18.47;15.17;;;19.60;39.70;;;;;;5060088;28;20472;-65
2022/07/24 04:36:26;;;;;;;18.50;14.40;;;19.70;39.50;;;;;;5065048;28;20468;-65
2022/07/24 04:38:52;;;;;;;18.97;14.10;;;19.80;39.20;;;;;;5063559;28;20485;-65
2022/07/24 04:41:19;;;;;;;15.30;13.37;;;19.90;39.10;;;;;;5066438;28;20477;-65
2022/07/24 04:43:46;;;;;;;17.37;13.87;;;19.90;39.10;;;;;;5064156;28;20457;-65
2022/07/24 04:46:13;;;;;;;16.17;14.20;;;20.00;39.00;;;;;;5067968;28;20457;-66
2022/07/24 04:48:41;;;;;;;16.20;14.10;;;20.00;38.80;;;;;;5065241;28;20493;-65
2022/07/24 04:51:08;;;;;;;20.50;14.07;;;20.00;39.10;;;;;;5067929;28;20453;-66
2022/07/24 04:53:35;;;;;;;16.97;14.30;;;20.10;39.00;;;;;;5064128;28;20554;-65
2022/07/24 04:56:01;;;;;;;19.33;14.57;;;20.20;38.70;;;;;;5065056;28;20597;-65
2022/07/24 04:58:28;;;;;;;16.17;12.70;;;20.30;38.60;;;;;;5068504;28;20477;-65
2022/07/24 05:00:55;;;;;;;17.67;13.20;;;20.60;38.00;;;;;;5064827;28;20469;-64
2022/07/24 05:03:22;;;;;;;19.83;13.40;;;21.40;37.30;;;;;;5062764;28;20469;-65
2022/07/24 05:05:50;;;;;;;15.40;12.47;;;22.30;34.70;;;;;;5065525;28;20468;-64
2022/07/24 05:08:17;;;;;;;16.53;12.00;;;23.20;32.10;;;;;;5061402;28;20492;-65
2022/07/24 05:10:44;;;;;;;14.40;11.60;;;24.10;29.40;;;;;;5065629;28;20458;-65
2022/07/24 05:13:10;;;;;;;14.47;12.90;;;25.00;27.10;;;;;;5061439;28;20465;-65
2022/07/24 05:15:37;;;;;;;16.80;11.57;;;26.00;24.20;;;;;;5064713;28;20475;-64
2022/07/24 05:18:04;;;;;;;20.80;12.00;;;26.60;21.60;;;;;;5066451;28;20480;-65
2022/07/24 05:20:31;;;;;;;13.63;11.53;;;27.30;19.90;;;;;;5065026;28;20480;-65
2022/07/24 05:22:59;;;;;;;16.33;11.40;;;28.00;18.70;;;;;;5062134;28;20465;-66
2022/07/24 05:25:26;;;;;;;13.03;11.10;;;28.70;16.90;;;;;;5061611;28;20457;-65
2022/07/24 05:27:53;;;;;;;13.07;11.67;;;29.40;16.00;;;;;;5065379;28;20484;-65
2022/07/24 05:30:19;;;;;;;15.20;12.63;;;30.00;14.40;;;;;;5063843;28;20461;-64
2022/07/24 05:32:46;;;;;;;15.93;11.90;;;30.50;13.10;;;;;;5065646;28;20480;-65
2022/07/24 05:35:13;;;;;;;13.30;12.00;;;31.20;12.40;;;;;;5060758;28;20468;-67
2022/07/24 05:37:40;;;;;;;15.00;11.77;;;31.90;11.10;;;;;;5062310;28;20983;-66
2022/07/24 05:40:09;;;;;;;13.57;12.00;;;32.60;9.80;;;;;;5060925;28;20477;-65
2022/07/24 05:42:36;;;;;;;13.87;12.47;;;33.20;8.50;;;;;;5064698;28;20460;-64
2022/07/24 05:45:04;;;;;;;16.83;12.93;;;33.70;7.60;;;;;;5062148;28;20979;-66
2022/07/24 05:47:36;;;;;;;14.20;12.60;;;34.30;6.80;;;;;;5065017;28;20503;-65
2022/07/24 05:50:04;;;;;;;14.37;12.90;;;35.00;5.90;;;;;;5067102;28;20468;-66
2022/07/24 05:52:30;;;;;;;13.00;11.50;;;35.50;5.00;;;;;;5065572;28;20461;-67
2022/07/24 05:54:57;;;;;;;13.73;12.20;;;36.10;4.30;;;;;;5069152;28;20464;-66
2022/07/24 05:57:25;;;;;;;13.83;12.50;;;36.60;3.70;;;;;;5065543;28;20495;-66
2022/07/24 05:59:52;;;;;;;13.70;12.30;;;37.30;2.80;;;;;;5065139;28;20485;-66
2022/07/24 06:02:19;;;;;;;13.33;11.50;;;37.80;1.90;;;;;;5068140;28;21157;-66
2022/07/24 06:04:45;;;;;;;12.67;11.47;;;38.40;1.20;;;;;;5067487;28;20457;-65
2022/07/24 06:09:39;;;;;;;11.73;10.63;;;39.40;1.00;;;;;;5071959;22;20512;-64
2022/07/24 06:12:07;;;;;;;13.60;12.20;;;39.80;1.00;;;;;;5049927;28;20469;-61
2022/07/24 06:14:35;;;;;;;17.27;11.73;;;40.20;1.00;;;;;;5050382;28;20461;-60
2022/07/24 06:17:02;;;;;;;14.30;12.37;;;40.50;1.00;;;;;;5052925;28;20457;-61
2022/07/24 06:19:29;;;;;;;13.43;12.23;;;40.90;1.00;;;;;;5050788;28;20489;-61
2022/07/24 06:21:56;;;;;;;12.87;11.67;;;41.30;1.00;;;;;;5048054;28;20460;-60
2022/07/24 06:24:23;;;;;;;14.67;12.33;;;41.70;1.00;;;;;;5051894;28;20476;-62
2022/07/24 06:26:50;;;;;;;14.27;11.70;;;42.10;1.00;;;;;;5047386;28;20611;-63
2022/07/24 06:29:17;;;;;;;12.80;11.57;;;42.70;1.00;;;;;;5050225;28;20485;-63
2022/07/24 06:31:45;;;;;;;13.87;12.67;;;43.20;1.00;;;;;;5050900;28;20473;-63
2022/07/24 06:34:11;;;;;;;14.37;11.60;;;43.60;1.00;;;;;;5048521;28;20462;-62
2022/07/24 06:36:38;;;;;;;12.67;11.57;;;44.00;1.00;;;;;;5049322;28;20476;-64
2022/07/24 06:39:05;;;;;;;13.40;12.10;;;44.60;1.00;;;;;;5049820;28;20482;-64
2022/07/24 06:41:32;;;;;;;13.60;12.20;;;45.20;1.00;;;;;;5047940;28;21058;-63
2022/07/24 06:43:59;;;;;;;12.20;11.00;;;45.50;1.00;;;;;;5049734;28;20474;-64
2022/07/24 06:46:26;;;;;;;11.27;10.27;;;45.90;1.00;;;;;;5048426;28;20470;-61
2022/07/24 06:48:54;;;;;;;11.33;10.33;;;46.40;1.00;;;;;;5049308;28;20477;-62
2022/07/24 06:51:21;;;;;;;13.40;11.93;;;46.90;1.00;;;;;;5047844;28;20446;-59
2022/07/24 06:53:47;;;;;;;14.40;11.20;;;47.30;1.00;;;;;;5048572;28;20457;-62
2022/07/24 06:56:14;;;;;;;13.27;11.97;;;47.50;1.00;;;;;;5049408;28;20457;-60
2022/07/24 06:58:41;;;;;;;12.23;11.13;;;47.90;1.00;;;;;;5046588;28;20485;-60
2022/07/24 07:01:08;;;;;;;12.27;11.17;;;48.30;1.00;;;;;;5045703;28;20486;-62
2022/07/24 07:03:34;;;;;;;12.17;11.07;;;48.70;1.00;;;;;;5046339;28;20472;-62
2022/07/24 07:06:03;;;;;;;12.07;10.90;;;49.00;1.00;;;;;;5048071;28;20454;-62
2022/07/24 07:08:30;;;;;;;11.73;10.60;;;49.30;1.00;;;;;;5045694;28;20502;-65
2022/07/24 07:10:56;;;;;;;13.17;11.87;;;49.40;1.00;;;;;;5048670;28;20462;-64
2022/07/24 07:13:23;;;;;;;13.93;12.20;;;49.70;1.00;;;;;;5048451;28;20557;-62
2022/07/24 07:15:50;;;;;;;13.07;11.73;;;50.00;1.00;;;;;;5049137;28;20469;-62
2022/07/24 07:18:17;;;;;;;11.90;10.77;;;50.20;1.00;;;;;;5047307;28;20481;-62
2022/07/24 07:20:44;;;;;;;12.40;11.10;;;50.30;1.00;;;;;;5047163;28;20490;-62
2022/07/24 07:23:12;;;;;;;11.40;10.50;;;50.50;1.00;;;;;;5045385;28;20463;-60
2022/07/24 07:25:38;;;;;;;12.80;11.70;;;50.80;1.00;;;;;;5044707;28;20469;-63
2022/07/24 07:28:05;;;;;;;12.23;11.17;;;51.10;1.00;;;;;;5046337;28;20482;-60
2022/07/24 07:30:32;;;;;;;15.63;10.63;;;51.30;1.00;;;;;;5044772;28;20467;-63
2022/07/24 07:32:59;;;;;;;12.10;10.87;;;51.70;1.00;;;;;;5046841;28;20466;-62
2022/07/24 07:35:25;;;;;;;14.30;13.07;;;51.90;1.00;;;;;;5043892;28;20465;-62
2022/07/24 07:37:52;;;;;;;15.00;13.43;;;51.80;1.00;;;;;;5048065;28;20493;-63
2022/07/24 07:40:20;;;;;;;12.70;11.60;;;51.60;1.00;;;;;;5042766;28;20482;-61
2022/07/24 07:42:47;;;;;;;11.77;10.70;;;51.70;1.00;;;;;;5047360;28;20469;-62
2022/07/24 07:45:14;;;;;;;13.00;11.60;;;51.70;1.00;;;;;;5046065;28;20477;-62
2022/07/24 07:47:41;;;;;;;11.53;10.53;;;52.10;1.00;;;;;;5044806;28;20486;-62
2022/07/24 07:50:08;;;;;;;10.70;9.70;;;52.20;1.00;;;;;;5046474;28;20826;-62
2022/07/24 07:52:35;;;;;;;11.60;10.40;;;52.40;1.00;;;;;;5047272;28;20967;-62
2022/07/24 07:55:02;;;;;;;10.60;9.63;;;52.70;1.00;;;;;;5046422;28;20470;-62
2022/07/24 07:57:30;;;;;;;9.73;8.80;;;52.80;1.00;;;;;;5047278;28;20465;-62
2022/07/24 07:59:57;;;;;;;10.37;9.47;;;53.10;1.00;;;;;;5040907;28;20477;-65
2022/07/24 08:02:23;;;;;;;10.90;9.70;;;53.40;1.00;;;;;;5045235;28;20474;-65
2022/07/24 08:04:50;;;;;;;10.67;8.00;;;53.40;1.00;;;;;;5047540;28;20462;-63
2022/07/24 08:07:17;;;;;;;8.73;8.03;;;53.80;1.00;;;;;;5047212;28;20465;-63
2022/07/24 08:09:44;;;;;;;9.23;8.33;;;54.50;1.00;;;;;;5047251;28;21000;-63
2022/07/24 08:12:11;;;;;;;9.00;8.20;;;54.90;1.00;;;;;;5046826;28;20973;-61
2022/07/24 08:14:39;;;;;;;9.03;7.43;;;55.20;1.00;;;;;;5046363;28;20469;-63
2022/07/24 08:17:06;;;;;;;8.83;7.30;;;55.40;1.00;;;;;;5044235;28;20462;-62
2022/07/24 08:19:33;;;;;;;8.67;7.87;;;55.50;1.00;;;;;;5046275;28;20473;-65
2022/07/24 08:21:59;;;;;;;7.40;6.70;;;55.60;1.00;;;;;;5055202;28;20468;-64
2022/07/24 08:24:26;;;;;;;7.47;6.70;;;55.80;1.00;;;;;;5058169;28;20949;-61
2022/07/24 08:26:53;;;;;;;7.70;7.00;;;55.70;1.00;;;;;;5050360;28;20477;-62
2022/07/24 08:29:19;;;;;;;7.93;7.13;;;55.80;1.00;;;;;;5048197;28;20477;-62
2022/07/24 08:31:48;;;;;;;8.90;6.90;;;55.80;1.00;;;;;;5048523;28;21004;-64
2022/07/24 08:34:15;;;;;;;7.57;6.70;;;55.80;1.00;;;;;;5048826;28;20460;-61
2022/07/24 08:36:45;;;;;;;7.93;7.17;;;55.60;1.00;;;;;;5048248;28;20496;-62
2022/07/24 08:39:12;;;;;;;9.83;7.27;;;55.90;1.00;;;;;;5052310;28;20568;-62
2022/07/24 08:41:39;;;;;;;8.20;6.80;;;55.90;1.00;;;;;;5044921;28;20492;-63
2022/07/24 08:44:06;;;;;;;7.90;6.50;;;55.80;1.00;;;;;;5052082;28;20852;-62
2022/07/24 08:46:37;;;;;;;8.27;7.57;;;55.30;1.00;;;;;;5055306;28;20458;-63
2022/07/24 08:49:08;;;;;;;7.23;6.53;;;54.90;1.00;;;;;;5051953;28;20524;-63
2022/07/24 08:51:39;;;;;;;8.00;7.30;;;55.00;1.00;;;;;;5043860;28;20555;-64
2022/07/24 08:54:06;;;;;;;7.40;6.70;;;55.20;1.00;;;;;;5049858;28;20461;-64
2022/07/24 08:56:36;;;;;;;7.30;6.60;;;55.00;1.00;;;;;;5047990;28;20462;-64
2022/07/24 08:59:03;;;;;;;7.77;6.80;;;55.10;1.00;;;;;;5047684;28;20481;-65
2022/07/24 09:01:30;;;;;;;7.80;6.67;;;55.50;1.00;;;;;;5047150;28;20482;-64
2022/07/24 09:03:57;;;;;;;7.33;6.63;;;56.30;1.00;;;;;;5047762;28;20472;-63
2022/07/24 09:06:25;;;;;;;7.57;6.60;;;56.60;1.00;;;;;;5047973;28;20454;-65
2022/07/24 09:09:00;;;;;;;7.67;6.97;;;56.90;1.00;;;;;;5047928;28;20497;-63
2022/07/24 09:11:29;;;;;;;7.50;6.60;;;57.60;1.00;;;;;;5044217;28;20463;-63
2022/07/24 09:16:45;;;;;;;7.80;7.00;;;58.00;1.00;;;;;;5047278;28;20197;-64
2022/07/24 09:19:15;;;;;;;6.33;5.63;;;57.40;1.00;;;;;;5048009;28;20507;-64
2022/07/24 09:21:44;;;;;;;7.30;6.60;;;56.70;1.00;;;;;;5046568;28;21177;-63
2022/07/24 09:24:15;;;;;;;6.57;5.97;;;56.30;1.00;;;;;;5050677;28;20460;-63
2022/07/24 09:26:47;;;;;;;6.80;6.20;;;56.40;1.00;;;;;;5049172;28;20457;-60
2022/07/24 09:29:14;;;;;;;7.00;6.40;;;56.90;1.00;;;;;;5051102;28;20480;-65
2022/07/24 09:31:52;;;;;;;6.03;5.43;;;57.60;1.00;;;;;;5046907;28;20482;-65
2022/07/24 09:34:19;;;;;;;6.40;5.80;;;57.90;1.00;;;;;;5046771;28;20198;-62
2022/07/24 09:37:00;;;;;;;6.60;6.00;;;58.10;1.00;;;;;;5050924;28;20195;-63
2022/07/24 09:39:27;;;;;;;6.80;6.20;;;57.80;1.00;;;;;;5048953;28;20753;-62
2022/07/24 09:41:56;;;;;;;8.03;7.23;;;57.90;1.00;;;;;;5052202;28;20207;-62
2022/07/24 09:44:23;;;;;;;7.13;6.53;;;57.90;1.00;;;;;;5045480;28;20282;-63
2022/07/24 09:46:57;;;;;;;7.47;6.73;;;57.80;1.00;;;;;;5047536;28;20257;-64
2022/07/24 09:49:24;;;;;;;7.20;6.50;;;57.90;1.00;;;;;;5049987;28;20267;-64
2022/07/24 09:54:47;;;;;;;6.80;6.10;;;57.90;1.00;;;;;;5081612;27;20542;-61
2022/07/24 09:57:19;;;;;;;7.80;7.10;;;53.30;1.00;;;;;;5084689;28;20545;-62
2022/07/24 09:59:48;;;;;;;7.40;6.70;;;51.60;1.00;;;;;;5063518;28;20468;-63
2022/07/24 10:02:16;;;;;;;8.40;7.60;;;49.60;1.00;;;;;;5025968;28;20609;-62
2022/07/24 10:04:44;;;;;;;8.00;6.90;;;48.20;1.00;;;;;;5023005;28;20463;-62
2022/07/24 10:07:13;;;;;;;8.27;7.47;;;46.60;1.00;;;;;;5033772;28;20512;-61
2022/07/24 10:09:43;;;;;;;8.30;7.40;;;44.70;1.00;;;;;;5021979;28;21006;-62
2022/07/24 10:12:15;;;;;;;8.93;8.13;;;43.20;1.00;;;;;;5018121;28;20463;-62
2022/07/24 10:14:43;;;;;;;7.93;7.23;;;42.00;1.00;;;;;;5019013;28;20484;-61
2022/07/24 10:17:13;;;;;;;9.13;7.60;;;41.00;1.00;;;;;;5031995;28;20466;-61
2022/07/24 10:19:42;;;;;;;8.00;7.20;;;40.30;1.00;;;;;;5024125;28;20459;-61
2022/07/24 10:22:14;;;;;;;8.70;7.90;;;39.80;1.00;;;;;;5024635;28;20462;-63
2022/07/24 10:25:06;;;;;;;8.50;7.70;;;39.40;1.00;;;;;;5019624;28;20456;-62
2022/07/24 10:27:36;;;;;;;8.90;8.00;;;39.10;1.00;;;;;;5016593;28;20459;-61
2022/07/24 10:30:06;;;;;;;9.30;7.63;;;38.80;1.00;;;;;;5008462;28;20468;-62
2022/07/24 10:32:34;;;;;;;9.57;8.33;;;38.70;1.00;;;;;;5014973;28;20479;-62
2022/07/24 10:35:12;;;;;;;11.90;8.83;;;38.60;1.00;;;;;;5014431;28;20486;-61
2022/07/24 10:37:44;;;;;;;8.90;8.00;;;38.10;1.00;;;;;;5005939;28;20486;-62
2022/07/24 10:40:19;;;;;;;9.87;8.97;;;37.60;1.00;;;;;;5016785;28;20479;-61
2022/07/24 10:43:16;;;;;;;12.70;7.63;;;37.00;1.00;;;;;;5016569;28;20517;-63
2022/07/24 10:45:45;;;;;;;9.83;8.60;;;36.30;1.00;;;;;;5021115;28;20463;-60
2022/07/24 10:48:30;;;;;;;9.80;8.60;;;35.80;1.00;;;;;;5013781;28;21022;-60
2022/07/24 10:51:06;;;;;;;8.53;7.63;;;35.30;1.00;;;;;;5021377;28;20459;-62
2022/07/24 10:53:48;;;;;;;9.00;8.00;;;35.00;1.00;;;;;;5014881;28;20548;-62
2022/07/24 10:56:21;;;;;;;8.90;8.00;;;34.70;1.00;;;;;;5016741;28;20471;-62
2022/07/24 10:59:01;;;;;;;8.77;7.77;;;34.50;1.00;;;;;;5017756;28;20483;-61
2022/07/24 11:01:37;;;;;;;8.80;7.90;;;34.40;1.00;;;;;;5017550;28;20490;-62
2022/07/24 11:04:20;;;;;;;8.13;7.27;;;34.20;1.00;;;;;;5017250;28;20455;-61
2022/07/24 11:06:48;;;;;;;8.30;7.40;;;34.30;1.00;;;;;;5007274;28;20474;-61
2022/07/24 11:09:17;;;;;;;10.27;9.07;;;34.30;1.00;;;;;;5003467;28;20475;-63
2022/07/24 11:12:06;;;;;;;9.93;8.40;;;34.40;1.00;;;;;;5003799;28;20468;-60
2022/07/24 11:14:51;;;;;;;9.10;8.20;;;34.30;1.00;;;;;;5005021;28;20494;-61
2022/07/24 11:17:37;;;;;;;9.17;8.27;;;34.20;1.00;;;;;;5002122;28;20485;-61
2022/07/24 11:20:05;;;;;;;9.40;8.50;;;34.30;1.00;;;;;;5002275;28;20466;-60
2022/07/24 11:22:44;;;;;;;11.47;8.63;;;34.40;1.60;;;;;;5004031;28;20779;-61
2022/07/24 11:25:16;;;;;;;10.50;8.87;;;34.60;1.00;;;;;;5007482;28;20864;-61
2022/07/24 11:27:49;;;;;;;8.53;7.53;;;34.60;1.00;;;;;;5002151;28;20949;-60
2022/07/24 11:30:19;;;;;;;9.30;8.30;;;34.50;1.00;;;;;;5004758;28;20452;-60
2022/07/24 11:32:46;;;;;;;10.30;9.27;;;34.50;1.00;;;;;;5009903;28;20580;-60
2022/07/24 11:35:13;;;;;;;9.50;8.50;;;34.50;1.00;;;;;;5003654;28;20483;-56
2022/07/24 11:37:42;;;;;;;8.40;7.57;;;34.50;1.00;;;;;;4999778;28;20480;-58
2022/07/24 11:40:10;;;;;;;9.30;8.40;;;34.60;1.00;;;;;;5009702;28;20827;-60
2022/07/24 11:42:36;;;;;;;8.83;7.97;;;34.60;1.00;;;;;;5004859;28;20463;-59
2022/07/24 11:45:05;;;;;;;9.20;8.30;;;34.80;1.00;;;;;;5006150;28;20459;-58
2022/07/24 11:47:33;;;;;;;10.80;8.27;;;34.80;1.00;;;;;;5008473;28;20471;-60
2022/07/24 11:50:02;;;;;;;9.93;8.97;;;34.60;1.00;;;;;;5003563;28;20475;-59
2022/07/24 11:52:35;;;;;;;9.10;8.20;;;34.20;1.00;;;;;;4998845;28;20461;-59
2022/07/24 11:55:07;;;;;;;10.37;9.07;;;33.90;1.00;;;;;;5001784;28;20492;-63
2022/07/24 11:57:36;;;;;;;10.97;9.63;;;33.70;1.00;;;;;;5007013;28;20902;-62
2022/07/24 12:00:07;;;;;;;9.50;8.60;;;33.50;1.00;;;;;;5006433;28;20468;-60
2022/07/24 12:02:35;;;;;;;8.47;7.67;;;33.40;1.00;;;;;;5005299;28;20579;-61
2022/07/24 12:05:03;;;;;;;9.90;8.83;;;33.20;1.00;;;;;;5006599;28;21016;-63
2022/07/24 12:07:30;;;;;;;10.33;7.77;;;33.10;1.00;;;;;;5004596;28;20858;-63
2022/07/24 12:09:58;;;;;;;10.00;8.53;;;33.00;1.00;;;;;;5011445;22;21093;-69
2022/07/24 12:12:27;;;;;;;8.17;7.33;;;32.90;1.00;;;;;;5007528;28;20507;-69
2022/07/24 12:15:02;;;;;;;8.40;7.37;;;32.80;1.00;;;;;;5008161;28;20487;-69
2022/07/24 12:17:29;;;;;;;8.90;8.00;;;32.70;1.00;;;;;;5007459;28;20503;-70
2022/07/24 12:19:59;;;;;;;8.03;7.23;;;32.70;1.00;;;;;;5007717;28;20476;-70
2022/07/24 12:22:28;;;;;;;10.10;7.47;;;32.70;1.00;;;;;;5007933;28;20479;-71
2022/07/24 12:24:56;;;;;;;8.87;7.40;;;32.70;1.00;;;;;;5007507;28;20459;-71
2022/07/24 12:27:38;;;;;;;8.00;7.20;;;32.60;1.00;;;;;;5000826;28;20961;-70
2022/07/24 12:30:20;;;;;;;8.47;7.30;;;32.80;1.30;;;;;;5000841;28;21115;-71
2022/07/24 12:32:55;;;;;;;9.40;7.70;;;32.70;1.00;;;;;;4995990;28;20487;-70
2022/07/24 12:35:24;;;;;;;9.33;8.37;;;32.70;1.00;;;;;;5001136;28;20490;-71
2022/07/24 12:37:51;;;;;;;8.47;7.60;;;32.60;1.00;;;;;;4998960;28;20467;-71
2022/07/24 12:40:27;;;;;;;8.53;7.73;;;32.40;1.00;;;;;;5005473;28;20494;-70
2022/07/24 12:42:59;;;;;;;8.90;8.00;;;32.30;1.00;;;;;;4993225;28;20471;-70
2022/07/24 12:45:26;;;;;;;8.10;6.83;;;32.20;1.00;;;;;;5008636;28;20455;-70
2022/07/24 12:48:17;;;;;;;11.13;7.87;;;32.20;1.00;;;;;;5004171;28;20559;-70
2022/07/24 12:51:11;;;;;;;9.17;7.60;;;32.20;1.00;;;;;;4989259;28;20491;-70
2022/07/24 12:53:40;;;;;;;8.47;7.57;;;32.10;1.00;;;;;;5012280;28;20584;-70
2022/07/24 12:56:10;;;;;;;8.20;6.90;;;32.10;1.00;;;;;;5013550;28;20729;-70
2022/07/24 12:58:58;;;;;;;8.13;7.33;;;32.10;1.00;;;;;;5028287;28;20467;-71